首页
METAR-TAF:

METAR-TAF

机场 :

Hannibal, 密蘇里州, 美国

纬度: 39-43-31N, 经度: 091-26-38W, 海拔: 234米

当前天气观测

该预报发布于28分钟前的20:15 UTC
风速3节,风向西转西南
温度 -5°C
湿度 35%
气压 1034 hPa
能見度: 16.1公里
天空无云

METAR: KHAE 122015Z AUTO 25003KT 10SM CLR M05/M18 A3052 RMK AO2

时间: 14:43 (20:43 UTC)


TAF: 丢失

超过4000个机场的气象观测和天气预报(METAR&TAF报告)。

可查询的气象台以黄色和红色小点在地图上表示。

将鼠标移到小点上方,可查看气象台名称。

然后点击查看天气观测和预报。

如需切换地图:点击带黑十字的绿色按钮放大地图;点击带横线的绿色按钮缩小地图;或者点击绿色箭头查看邻近地区的地图。


METAR-TAF: